createdAt,value
2022-09-06T00:01:11.626Z,15.41
2022-09-06T00:05:20.027Z,15.46
2022-09-06T00:09:27.911Z,15.49
2022-09-06T00:13:37.597Z,15.49
2022-09-06T00:17:46.702Z,15.50
2022-09-06T00:21:54.600Z,15.49
2022-09-06T00:26:07.447Z,15.50
2022-09-06T00:30:16.513Z,15.52
2022-09-06T00:34:24.510Z,15.53
2022-09-06T00:38:32.212Z,15.50
2022-09-06T00:42:40.413Z,15.42
2022-09-06T00:46:49.897Z,15.32
2022-09-06T00:50:59.057Z,15.26
2022-09-06T00:55:07.976Z,15.23
2022-09-06T00:59:16.259Z,15.23
2022-09-06T01:03:25.552Z,15.21
2022-09-06T01:07:42.069Z,15.14
2022-09-06T01:12:00.648Z,15.10
2022-09-06T01:16:15.005Z,15.10
2022-09-06T01:20:35.221Z,15.10
2022-09-06T01:25:08.922Z,15.09
2022-09-06T01:29:22.299Z,15.04
2022-09-06T01:33:34.071Z,15.01
2022-09-06T01:37:42.365Z,15.01
2022-09-06T01:41:50.350Z,15.00
2022-09-06T01:46:05.409Z,15.00
2022-09-06T01:50:45.629Z,15.05
2022-09-06T01:55:07.719Z,15.07
2022-09-06T01:59:38.539Z,15.07
2022-09-06T02:03:50.104Z,15.07
2022-09-06T02:08:01.950Z,15.07
2022-09-06T02:12:13.471Z,15.03
2022-09-06T02:16:26.831Z,14.94
2022-09-06T02:20:36.907Z,14.86
2022-09-06T02:24:45.743Z,14.87
2022-09-06T02:28:53.870Z,14.91
2022-09-06T02:33:03.847Z,14.96
2022-09-06T02:37:12.456Z,14.99
2022-09-06T02:41:22.939Z,14.96
2022-09-06T02:45:33.619Z,14.90
2022-09-06T02:49:41.580Z,14.88
2022-09-06T02:53:49.445Z,14.84
2022-09-06T02:57:57.670Z,14.74
2022-09-06T03:02:05.697Z,14.67
2022-09-06T03:06:14.124Z,14.64
2022-09-06T03:10:22.299Z,14.63
2022-09-06T03:14:30.660Z,14.57
2022-09-06T03:18:38.500Z,14.53
2022-09-06T03:22:47.197Z,14.52
2022-09-06T03:26:55.952Z,14.52
2022-09-06T03:31:03.744Z,14.51
2022-09-06T03:35:13.148Z,14.51
2022-09-06T03:39:21.406Z,14.53
2022-09-06T03:43:30.221Z,14.57
2022-09-06T03:47:38.534Z,14.58
2022-09-06T03:51:47.088Z,14.58
2022-09-06T03:55:56.233Z,14.55
2022-09-06T04:00:05.582Z,14.54
2022-09-06T04:04:13.220Z,14.54
2022-09-06T04:08:21.365Z,14.49
2022-09-06T04:12:29.534Z,14.44
2022-09-06T04:16:37.818Z,14.39
2022-09-06T04:20:46.802Z,14.34
2022-09-06T04:24:54.669Z,14.29
2022-09-06T04:29:03.004Z,14.27
2022-09-06T04:33:10.788Z,14.24
2022-09-06T04:37:20.712Z,14.21
2022-09-06T04:41:29.389Z,14.18
2022-09-06T04:45:44.862Z,14.19
2022-09-06T04:49:55.307Z,14.22
2022-09-06T04:54:04.746Z,14.26
2022-09-06T04:58:17.239Z,14.31
2022-09-06T05:02:29.492Z,14.36
2022-09-06T05:06:41.714Z,14.40
2022-09-06T05:10:49.941Z,14.46
2022-09-06T05:15:01.769Z,14.56
2022-09-06T05:19:09.886Z,14.63
2022-09-06T05:23:21.154Z,14.70
2022-09-06T05:27:34.919Z,14.76
2022-09-06T05:31:50.299Z,14.82
2022-09-06T05:36:00.723Z,14.90
2022-09-06T05:40:13.402Z,14.95
2022-09-06T05:44:28.557Z,14.95
2022-09-06T05:48:41.752Z,14.89
2022-09-06T05:52:59.499Z,14.85
2022-09-06T05:57:07.305Z,14.86
2022-09-06T06:01:22.544Z,14.87
2022-09-06T06:05:37.791Z,14.89
2022-09-06T06:09:47.787Z,14.91
2022-09-06T06:14:03.789Z,14.95
2022-09-06T06:18:11.636Z,14.98
2022-09-06T06:22:19.750Z,14.99
2022-09-06T06:26:35.288Z,15.02
2022-09-06T06:30:45.496Z,15.06
2022-09-06T06:35:02.235Z,15.06
2022-09-06T06:39:13.731Z,15.07
2022-09-06T06:43:24.792Z,15.11
2022-09-06T06:47:37.087Z,15.18
2022-09-06T06:51:51.149Z,15.18
2022-09-06T06:56:14.245Z,15.21
2022-09-06T07:00:25.170Z,15.24
2022-09-06T07:04:36.703Z,15.24
2022-09-06T07:08:49.358Z,15.18
2022-09-06T07:13:00.179Z,15.16
2022-09-06T07:17:10.109Z,15.15
2022-09-06T07:21:42.523Z,15.12
2022-09-06T07:25:56.941Z,15.09
2022-09-06T07:30:15.228Z,15.09
2022-09-06T07:34:30.190Z,15.10
2022-09-06T07:38:45.060Z,15.13
2022-09-06T07:42:59.451Z,15.12
2022-09-06T07:51:37.093Z,15.17
2022-09-06T07:55:44.684Z,15.26
2022-09-06T07:59:58.154Z,15.37
2022-09-06T08:04:13.122Z,15.49
2022-09-06T08:13:03.498Z,15.80
2022-09-06T08:17:12.756Z,15.94
2022-09-06T08:21:25.268Z,16.05
2022-09-06T08:25:40.918Z,16.16
2022-09-06T08:29:55.448Z,16.34
2022-09-06T08:34:06.003Z,16.50
2022-09-06T08:38:14.940Z,16.61
2022-09-06T08:42:22.819Z,16.68
2022-09-06T08:46:33.906Z,16.77
2022-09-06T08:50:43.593Z,16.93
2022-09-06T08:54:58.624Z,17.09
2022-09-06T08:59:09.471Z,17.26
2022-09-06T09:03:24.067Z,17.43
2022-09-06T09:08:01.751Z,17.57
2022-09-06T09:12:13.583Z,17.64
2022-09-06T09:16:31.302Z,17.70
2022-09-06T09:20:45.514Z,17.78
2022-09-06T09:24:57.323Z,17.86
2022-09-06T09:29:12.706Z,17.95
2022-09-06T09:33:30.225Z,18.00
2022-09-06T09:41:53.730Z,18.08
2022-09-06T09:46:16.889Z,18.13
2022-09-06T09:50:30.317Z,18.14
2022-09-06T09:54:39.874Z,18.22
2022-09-06T09:58:47.499Z,18.33
2022-09-06T10:02:55.970Z,18.45
2022-09-06T10:07:15.458Z,18.62
2022-09-06T10:11:41.848Z,18.77
2022-09-06T10:15:50.599Z,18.81
2022-09-06T10:19:58.915Z,18.77
2022-09-06T10:28:36.486Z,18.92
2022-09-06T10:32:53.879Z,19.01
2022-09-06T10:37:09.987Z,19.03
2022-09-06T10:41:34.469Z,19.16
2022-09-06T10:45:48.731Z,19.33
2022-09-06T10:49:59.268Z,19.44
2022-09-06T10:54:13.065Z,19.53
2022-09-06T11:07:38.232Z,19.84
2022-09-06T11:11:49.044Z,19.98
2022-09-06T11:16:01.656Z,20.15
2022-09-06T11:20:13.361Z,20.26
2022-09-06T11:24:30.450Z,20.28
2022-09-06T11:28:41.096Z,20.28
2022-09-06T11:32:50.499Z,20.33
2022-09-06T11:37:00.173Z,20.39
2022-09-06T11:41:16.913Z,20.46
2022-09-06T11:45:40.891Z,20.46
2022-09-06T11:49:49.792Z,20.47
2022-09-06T11:54:25.257Z,20.62
2022-09-06T11:58:48.283Z,20.80
2022-09-06T12:07:24.631Z,20.87
2022-09-06T12:11:39.712Z,20.93
2022-09-06T12:15:56.742Z,21.05
2022-09-06T12:20:11.380Z,21.32
2022-09-06T12:24:54.537Z,21.60
2022-09-06T12:29:02.752Z,21.85
2022-09-06T12:33:13.375Z,22.02
2022-09-06T12:37:34.243Z,22.04
2022-09-06T12:41:44.683Z,21.96
2022-09-06T12:45:53.671Z,21.99
2022-09-06T12:50:18.935Z,22.07
2022-09-06T12:54:28.968Z,22.11
2022-09-06T12:58:36.961Z,22.20
2022-09-06T13:02:53.382Z,22.31
2022-09-06T13:07:04.622Z,22.33
2022-09-06T13:11:14.655Z,22.36
2022-09-06T13:15:25.400Z,22.42
2022-09-06T13:19:38.277Z,22.44
2022-09-06T13:23:48.587Z,22.41
2022-09-06T13:27:59.083Z,22.41
2022-09-06T13:32:09.968Z,22.48
2022-09-06T13:36:26.265Z,22.57
2022-09-06T13:41:10.591Z,22.64
2022-09-06T13:45:26.329Z,22.66
2022-09-06T13:49:35.898Z,22.60
2022-09-06T13:53:43.956Z,22.48
2022-09-06T13:57:51.972Z,22.37
2022-09-06T14:02:04.982Z,22.31
2022-09-06T14:06:13.711Z,22.25
2022-09-06T14:10:24.269Z,22.23
2022-09-06T14:14:31.697Z,22.23
2022-09-06T14:18:40.643Z,22.17
2022-09-06T14:22:48.517Z,22.18
2022-09-06T14:26:56.479Z,22.19
2022-09-06T14:31:12.962Z,22.19
2022-09-06T14:35:20.681Z,22.16
2022-09-06T14:39:28.714Z,22.16
2022-09-06T14:43:37.146Z,22.14
2022-09-06T14:47:45.926Z,22.13
2022-09-06T14:51:55.024Z,22.12
2022-09-06T14:56:06.327Z,22.12
2022-09-06T15:00:16.069Z,22.11
2022-09-06T15:04:23.939Z,22.10
2022-09-06T15:08:31.238Z,22.06
2022-09-06T15:12:39.463Z,22.03
2022-09-06T15:16:53.360Z,21.95
2022-09-06T15:21:13.674Z,21.88
2022-09-06T15:25:21.276Z,21.83
2022-09-06T15:29:29.182Z,21.81
2022-09-06T15:33:38.384Z,21.78
2022-09-06T15:37:46.386Z,21.73
2022-09-06T15:41:54.922Z,21.71
2022-09-06T15:46:02.127Z,21.67
2022-09-06T15:50:11.253Z,21.66
2022-09-06T15:54:40.247Z,21.62
2022-09-06T15:58:48.546Z,21.58
2022-09-06T16:02:58.389Z,21.56
2022-09-06T16:07:06.806Z,21.55
2022-09-06T16:11:16.016Z,21.50
2022-09-06T16:15:23.943Z,21.48
2022-09-06T16:19:31.754Z,21.43
2022-09-06T16:23:40.336Z,21.35
2022-09-06T16:27:47.955Z,21.31
2022-09-06T16:32:00.016Z,21.28
2022-09-06T16:36:11.344Z,21.24
2022-09-06T16:40:19.393Z,21.15
2022-09-06T16:44:27.257Z,21.08
2022-09-06T16:48:35.076Z,21.00
2022-09-06T16:52:43.051Z,20.90
2022-09-06T16:56:51.062Z,20.79
2022-09-06T17:01:01.199Z,20.71
2022-09-06T17:05:11.456Z,20.63
2022-09-06T17:09:21.227Z,20.55
2022-09-06T17:13:29.555Z,20.48
2022-09-06T17:17:37.590Z,20.39
2022-09-06T17:21:45.747Z,20.29
2022-09-06T17:25:53.966Z,20.20
2022-09-06T17:30:01.782Z,20.14
2022-09-06T17:34:09.601Z,20.10
2022-09-06T17:38:18.486Z,20.02
2022-09-06T17:42:27.050Z,19.89
2022-09-06T17:46:35.104Z,19.73
2022-09-06T17:50:43.511Z,19.59
2022-09-06T17:54:51.137Z,19.46
2022-09-06T17:59:01.423Z,19.35
2022-09-06T18:03:11.076Z,19.31
2022-09-06T18:07:19.990Z,19.33
2022-09-06T18:11:29.287Z,19.35
2022-09-06T18:15:42.240Z,19.36
2022-09-06T18:19:49.698Z,19.33
2022-09-06T18:23:59.403Z,19.26
2022-09-06T18:28:09.861Z,19.17
2022-09-06T18:32:18.222Z,19.08
2022-09-06T18:36:31.152Z,19.00
2022-09-06T18:40:41.225Z,18.95
2022-09-06T18:44:48.986Z,18.90
2022-09-06T18:48:57.196Z,18.83
2022-09-06T18:53:04.749Z,18.79
2022-09-06T18:57:15.529Z,18.75
2022-09-06T19:01:23.025Z,18.72
2022-09-06T19:05:31.611Z,18.70
2022-09-06T19:09:39.474Z,18.66
2022-09-06T19:13:51.141Z,18.64
2022-09-06T19:17:59.105Z,18.57
2022-09-06T19:22:07.370Z,18.52
2022-09-06T19:26:17.872Z,18.45
2022-09-06T19:30:25.257Z,18.40
2022-09-06T19:34:33.637Z,18.39
2022-09-06T19:39:02.103Z,18.38
2022-09-06T19:43:09.638Z,18.37
2022-09-06T19:47:18.057Z,18.33
2022-09-06T19:51:26.215Z,18.25
2022-09-06T19:55:35.816Z,18.18
2022-09-06T19:59:45.142Z,18.13
2022-09-06T20:03:52.735Z,18.09
2022-09-06T20:08:00.759Z,18.02
2022-09-06T20:12:09.751Z,17.95
2022-09-06T20:16:20.414Z,17.87
2022-09-06T20:20:28.767Z,17.81
2022-09-06T20:24:38.140Z,17.77
2022-09-06T20:28:46.183Z,17.74
2022-09-06T20:32:53.874Z,17.67
2022-09-06T20:37:01.905Z,17.63
2022-09-06T20:41:11.074Z,17.58
2022-09-06T20:45:19.795Z,17.49
2022-09-06T20:49:27.908Z,17.39
2022-09-06T20:53:37.790Z,17.29
2022-09-06T20:57:47.800Z,17.22
2022-09-06T21:01:55.484Z,17.15
2022-09-06T21:06:07.700Z,17.09
2022-09-06T21:10:15.709Z,17.05
2022-09-06T21:14:23.366Z,17.02
2022-09-06T21:18:31.664Z,16.99
2022-09-06T21:22:39.272Z,16.98
2022-09-06T21:26:46.841Z,16.97
2022-09-06T21:31:04.825Z,16.98
2022-09-06T21:35:12.966Z,16.98
2022-09-06T21:39:20.727Z,16.98
2022-09-06T21:43:28.523Z,16.93
2022-09-06T21:47:36.452Z,16.85
2022-09-06T21:51:44.703Z,16.83
2022-09-06T21:55:52.926Z,16.82
2022-09-06T22:00:01.046Z,16.79
2022-09-06T22:04:14.752Z,16.75
2022-09-06T22:08:22.976Z,16.72
2022-09-06T22:12:31.291Z,16.69
2022-09-06T22:16:40.892Z,16.66
2022-09-06T22:20:48.364Z,16.59
2022-09-06T22:24:55.903Z,16.54
2022-09-06T22:29:06.135Z,16.49
2022-09-06T22:33:14.083Z,16.41
2022-09-06T22:37:22.524Z,16.34
2022-09-06T22:41:31.770Z,16.27
2022-09-06T22:45:40.825Z,16.19
2022-09-06T22:49:49.453Z,16.12
2022-09-06T22:53:57.665Z,16.07
2022-09-06T22:58:06.240Z,16.06
2022-09-06T23:02:13.976Z,16.05
2022-09-06T23:06:21.881Z,16.05
2022-09-06T23:10:30.648Z,16.03
2022-09-06T23:14:38.358Z,16.01
2022-09-06T23:18:45.638Z,15.99
2022-09-06T23:22:53.206Z,15.99
2022-09-06T23:27:02.444Z,15.98
2022-09-06T23:31:12.060Z,15.95
2022-09-06T23:35:21.135Z,15.94
2022-09-06T23:39:29.798Z,15.91
2022-09-06T23:43:38.285Z,15.87
2022-09-06T23:47:46.686Z,15.78
2022-09-06T23:51:56.180Z,15.73
2022-09-06T23:56:04.866Z,15.69
